Time;durP1;ratioP1;P1;durP2;ratioP2;P2;SDS_P1;SDS_P2;PMS_P1;PMS_P2;Temp;Humidity;BMP_temperature;BMP_pressure;BME280_temperature;BME280_humidity;BME280_pressure;Samples;Min_cycle;Max_cycle;Signal;HPM_P1;HPM_P2
2023/04/14 00:00:19;;;;;;;;;;;359.00;2329.60;;;;;;5070422;28;19905;-70
2023/04/14 00:02:45;;;;;;;;;;;359.00;2329.60;;;;;;5073731;28;19909;-69
2023/04/14 00:05:11;;;;;;;;;;;358.90;2329.60;;;;;;5066361;28;20035;-71
2023/04/14 00:07:36;;;;;;;;;;;359.00;2329.60;;;;;;5073967;28;19943;-71
2023/04/14 00:10:02;;;;;;;;;;;359.00;2329.60;;;;;;5073676;28;19958;-73
2023/04/14 00:12:27;;;;;;;;;;;359.10;2329.60;;;;;;5073691;28;19911;-71
2023/04/14 00:14:53;;;;;;;;;;;359.20;2329.60;;;;;;5073586;28;19920;-70
2023/04/14 00:17:19;;;;;;;;;;;359.10;2329.60;;;;;;5073716;28;20419;-70
2023/04/14 00:19:45;;;;;;;;;;;359.10;2329.60;;;;;;5073767;28;20383;-69
2023/04/14 00:22:11;;;;;;;;;;;359.00;2329.60;;;;;;5073627;28;20273;-71
2023/04/14 00:24:41;;;;;;;;;;;359.00;2329.60;;;;;;5073408;28;19912;-70
2023/04/14 00:27:07;;;;;;;;;;;359.00;2329.60;;;;;;5077517;28;19947;-71
2023/04/14 00:29:33;;;;;;;;;;;359.00;2329.60;;;;;;5077521;28;19965;-69
2023/04/14 00:31:59;;;;;;;;;;;359.00;2329.60;;;;;;5077606;28;20354;-73
2023/04/14 00:34:24;;;;;;;;;;;359.00;2329.60;;;;;;5077631;28;19904;-70
2023/04/14 00:36:50;;;;;;;;;;;359.00;2329.60;;;;;;5077589;28;19904;-70
2023/04/14 00:39:15;;;;;;;;;;;359.00;2329.60;;;;;;5077632;28;19904;-70
2023/04/14 00:41:42;;;;;;;;;;;359.00;2329.60;;;;;;5077674;28;20005;-76
2023/04/14 00:44:08;;;;;;;;;;;359.00;2329.60;;;;;;5077338;28;19913;-77
2023/04/14 00:46:34;;;;;;;;;;;359.00;2329.60;;;;;;5087633;28;19939;-69
2023/04/14 00:49:00;;;;;;;;;;;359.00;2329.60;;;;;;5087487;28;19928;-71
2023/04/14 00:51:26;;;;;;;;;;;359.10;2329.60;;;;;;5089523;28;20405;-70
2023/04/14 00:53:52;;;;;;;;;;;359.20;2329.60;;;;;;5085829;28;19905;-70
2023/04/14 00:56:17;;;;;;;;;;;359.20;2329.60;;;;;;5079053;28;20346;-72
2023/04/14 00:58:43;;;;;;;;;;;359.20;2329.60;;;;;;5080349;28;19930;-70
2023/04/14 01:01:10;;;;;;;;;;;359.10;2329.60;;;;;;5077630;28;20349;-70
2023/04/14 01:03:35;;;;;;;;;;;359.10;2329.60;;;;;;5078739;28;20360;-70
2023/04/14 01:06:01;;;;;;;;;;;359.10;2329.60;;;;;;5078956;28;19963;-70
2023/04/14 01:08:27;;;;;;;;;;;359.10;2329.60;;;;;;5086560;28;19958;-72
2023/04/14 01:11:12;;;;;;;;;;;359.10;2329.60;;;;;;5085270;28;19905;-70
2023/04/14 01:13:51;;;;;;;;;;;359.20;2329.60;;;;;;5092225;28;19904;-70
2023/04/14 01:16:19;;;;;;;;;;;359.20;2329.60;;;;;;5090114;28;19920;-70
2023/04/14 01:18:55;;;;;;;;;;;359.30;2329.60;;;;;;5078119;28;19975;-72
2023/04/14 01:21:27;;;;;;;;;;;384.00;2329.60;;;;;;5075519;28;19904;-70
2023/04/14 01:23:52;;;;;;;;;;;384.20;2329.60;;;;;;5083675;28;19959;-77
2023/04/14 01:26:27;;;;;;;;;;;384.30;2278.40;;;;;;5080929;28;19958;-70
2023/04/14 01:29:16;;;;;;;;;;;384.50;2150.40;;;;;;5078250;28;19904;-77
2023/04/14 01:31:44;;;;;;;;;;;384.70;2099.20;;;;;;5072074;28;20365;-75
2023/04/14 01:34:13;;;;;;;;;;;384.70;2073.60;;;;;;5077936;28;19927;-70
2023/04/14 01:36:43;;;;;;;;;;;384.80;2073.60;;;;;;5077391;28;20583;-70
2023/04/14 01:39:10;;;;;;;;;;;384.90;2073.60;;;;;;5080530;28;20369;-70
2023/04/14 01:41:41;;;;;;;;;;;384.90;2099.20;;;;;;5083546;28;19972;-74
2023/04/14 01:44:08;;;;;;;;;;;384.80;2124.80;;;;;;5075617;28;19919;-76
2023/04/14 01:46:35;;;;;;;;;;;384.70;2124.80;;;;;;5078875;28;19927;-77
2023/04/14 01:49:01;;;;;;;;;;;384.70;2124.80;;;;;;5080035;28;19911;-70
2023/04/14 01:51:27;;;;;;;;;;;384.70;2099.20;;;;;;5080375;28;19904;-70
2023/04/14 01:53:54;;;;;;;;;;;384.60;2099.20;;;;;;5082408;28;19912;-70
2023/04/14 01:56:20;;;;;;;;;;;384.60;2124.80;;;;;;5077814;28;19904;-71
2023/04/14 01:58:47;;;;;;;;;;;384.40;2099.20;;;;;;5077376;28;19904;-70
2023/04/14 02:01:13;;;;;;;;;;;384.60;2073.60;;;;;;5085120;28;19904;-71
2023/04/14 02:03:39;;;;;;;;;;;384.70;2048.00;;;;;;5086329;28;20024;-71
2023/04/14 02:06:06;;;;;;;;;;;384.70;2048.00;;;;;;5082813;28;19911;-70
2023/04/14 02:08:32;;;;;;;;;;;384.70;2048.00;;;;;;5082200;28;19904;-71
2023/04/14 02:10:59;;;;;;;;;;;384.70;2048.00;;;;;;5089154;28;19935;-70
2023/04/14 02:13:26;;;;;;;;;;;384.70;2048.00;;;;;;5077431;28;19904;-70
2023/04/14 02:15:52;;;;;;;;;;;384.70;2022.40;;;;;;5082611;28;19951;-69
2023/04/14 02:18:18;;;;;;;;;;;384.80;1996.80;;;;;;5077148;28;19931;-73
2023/04/14 02:20:46;;;;;;;;;;;384.80;1996.80;;;;;;5071527;28;19911;-69
2023/04/14 02:23:13;;;;;;;;;;;384.70;2022.40;;;;;;5078691;28;19904;-70
2023/04/14 02:25:40;;;;;;;;;;;384.70;2022.40;;;;;;5080693;28;20281;-70
2023/04/14 02:28:08;;;;;;;;;;;384.70;2022.40;;;;;;5083820;28;19990;-74
2023/04/14 02:30:37;;;;;;;;;;;384.70;2048.00;;;;;;5086847;28;19904;-76
2023/04/14 02:33:10;;;;;;;;;;;384.60;2048.00;;;;;;5079282;28;20400;-70
2023/04/14 02:35:46;;;;;;;;;;;384.60;2048.00;;;;;;5076602;28;19957;-70
2023/04/14 02:38:25;;;;;;;;;;;384.60;2022.40;;;;;;5074955;28;19904;-76
2023/04/14 02:40:51;;;;;;;;;;;384.70;1971.20;;;;;;5087637;28;19911;-74
2023/04/14 02:43:19;;;;;;;;;;;384.80;1920.00;;;;;;5083484;28;19904;-70
2023/04/14 02:45:47;;;;;;;;;;;384.90;1894.40;;;;;;5073488;28;20377;-70
2023/04/14 02:48:14;;;;;;;;;;;384.90;1894.40;;;;;;5074615;28;20359;-76
2023/04/14 02:50:43;;;;;;;;;;;384.90;1894.40;;;;;;5079287;28;20246;-71
2023/04/14 02:53:09;;;;;;;;;;;384.90;1868.80;;;;;;5075109;28;20389;-70
2023/04/14 02:55:36;;;;;;;;;;;409.60;1868.80;;;;;;5078050;28;19908;-77
2023/04/14 02:58:02;;;;;;;;;;;409.60;1843.20;;;;;;5073301;28;19920;-70
2023/04/14 03:00:27;;;;;;;;;;;409.60;1843.20;;;;;;5078982;28;19905;-72
2023/04/14 03:02:54;;;;;;;;;;;409.70;1817.60;;;;;;5097405;28;20250;-70
2023/04/14 03:05:20;;;;;;;;;;;409.70;1817.60;;;;;;5076075;28;20281;-70
2023/04/14 03:07:46;;;;;;;;;;;409.70;1792.00;;;;;;5078759;28;19912;-72
2023/04/14 03:10:13;;;;;;;;;;;409.70;1817.60;;;;;;5076125;28;19904;-71
2023/04/14 03:12:40;;;;;;;;;;;409.60;1817.60;;;;;;5076018;28;19950;-72
2023/04/14 03:15:06;;;;;;;;;;;384.90;1792.00;;;;;;5078513;28;19940;-71
2023/04/14 03:17:32;;;;;;;;;;;384.90;1817.60;;;;;;5072954;28;20008;-70
2023/04/14 03:19:59;;;;;;;;;;;384.90;1817.60;;;;;;5078491;28;19904;-70
2023/04/14 03:22:27;;;;;;;;;;;384.80;1817.60;;;;;;5075617;28;19987;-71
2023/04/14 03:24:57;;;;;;;;;;;384.80;1817.60;;;;;;5096876;28;20368;-77
2023/04/14 03:27:25;;;;;;;;;;;384.80;1817.60;;;;;;5075744;28;19904;-74
2023/04/14 03:29:55;;;;;;;;;;;384.80;1817.60;;;;;;5074252;28;19904;-76
2023/04/14 03:32:25;;;;;;;;;;;384.80;1792.00;;;;;;5079220;28;19911;-70
2023/04/14 03:34:52;;;;;;;;;;;384.80;1792.00;;;;;;5078002;28;19951;-76
2023/04/14 03:37:21;;;;;;;;;;;384.80;1792.00;;;;;;5075823;28;19911;-71
2023/04/14 03:39:49;;;;;;;;;;;384.70;1792.00;;;;;;5078310;28;20057;-70
2023/04/14 03:42:16;;;;;;;;;;;384.70;1792.00;;;;;;5072885;28;19905;-70
2023/04/14 03:44:48;;;;;;;;;;;384.70;1792.00;;;;;;5078049;28;19916;-69
2023/04/14 04:11:04;;;;;;;9.30;2.30;;;384.10;1817.60;;;;;;5121128;27;20391;-70
2023/04/14 04:13:31;;;;;;;11.23;2.88;;;384.80;1766.40;;;;;;5123233;27;20073;-70
2023/04/14 04:15:58;;;;;;;5.47;2.13;;;384.70;1792.00;;;;;;5109470;28;20050;-70
2023/04/14 04:18:26;;;;;;;9.07;2.10;;;384.60;1817.60;;;;;;5109339;28;20038;-71
2023/04/14 04:20:55;;;;;;;6.13;2.40;;;384.50;1843.20;;;;;;5109336;28;20032;-70
2023/04/14 04:23:22;;;;;;;11.20;2.38;;;384.40;1894.40;;;;;;5109532;28;20023;-73
2023/04/14 04:25:49;;;;;;;6.97;2.58;;;384.30;1971.20;;;;;;5109017;28;20106;-71
2023/04/14 04:28:15;;;;;;;8.75;2.63;;;384.30;1996.80;;;;;;5108447;28;20400;-79
2023/04/14 04:30:42;;;;;;;4.38;2.47;;;384.30;2022.40;;;;;;5107429;28;20028;-71
2023/04/14 04:33:09;;;;;;;3.38;2.10;;;384.30;2048.00;;;;;;5109096;28;20107;-73
2023/04/14 04:35:36;;;;;;;5.05;2.05;;;384.20;2073.60;;;;;;5108921;28;20047;-72
2023/04/14 04:38:03;;;;;;;7.38;1.98;;;384.20;2073.60;;;;;;5109378;28;20016;-72
2023/04/14 04:40:36;;;;;;;4.15;2.30;;;384.20;2073.60;;;;;;5108818;28;20565;-71
2023/04/14 04:43:02;;;;;;;4.57;2.38;;;384.20;2073.60;;;;;;5108956;28;20019;-71
2023/04/14 04:46:07;;;;;;;5.75;2.13;;;384.20;2124.80;;;;;;5108993;28;20028;-72
2023/04/14 04:48:33;;;;;;;5.28;2.30;;;384.20;2150.40;;;;;;5086521;28;20135;-71
2023/04/14 04:50:58;;;;;;;3.33;2.00;;;384.10;2176.00;;;;;;5086068;28;20115;-71
2023/04/14 04:53:24;;;;;;;5.25;2.40;;;384.10;2176.00;;;;;;5086910;28;20032;-73
2023/04/14 04:55:50;;;;;;;6.50;3.03;;;384.10;2227.20;;;;;;5086225;28;20473;-72
2023/04/14 04:58:15;;;;;;;4.57;2.08;;;384.10;2150.40;;;;;;5084171;28;20489;-72
2023/04/14 05:00:42;;;;;;;5.30;2.17;;;384.10;2176.00;;;;;;5088399;28;20153;-72
2023/04/14 05:03:08;;;;;;;9.43;2.85;;;384.10;2201.60;;;;;;5092719;28;20027;-72
2023/04/14 05:05:36;;;;;;;4.43;2.35;;;384.10;2176.00;;;;;;5091508;28;20402;-71
2023/04/14 05:08:03;;;;;;;5.32;2.30;;;384.20;2150.40;;;;;;5097141;28;20021;-71
2023/04/14 05:10:28;;;;;;;2.72;1.83;;;384.30;2099.20;;;;;;5084033;28;20047;-71
2023/04/14 05:12:54;;;;;;;7.90;2.45;;;384.30;2073.60;;;;;;5075312;28;20036;-73
2023/04/14 05:15:20;;;;;;;3.88;1.85;;;384.30;2022.40;;;;;;5081187;28;20026;-74
2023/04/14 05:17:45;;;;;;;10.95;2.50;;;384.40;2022.40;;;;;;5078026;28;20055;-71
2023/04/14 05:20:12;;;;;;;7.10;2.78;;;384.40;2048.00;;;;;;5075110;28;20067;-71
2023/04/14 05:22:38;;;;;;;9.63;2.55;;;384.40;2022.40;;;;;;5074665;28;20024;-72
2023/04/14 05:25:04;;;;;;;9.23;2.47;;;384.30;2073.60;;;;;;5082395;28;20373;-71
2023/04/14 05:27:30;;;;;;;8.32;2.95;;;384.30;2150.40;;;;;;5102782;28;20035;-71
2023/04/14 05:29:56;;;;;;;6.90;2.70;;;384.20;2227.20;;;;;;5094094;28;20074;-72
2023/04/14 05:32:22;;;;;;;5.25;2.88;;;384.10;2201.60;;;;;;5089621;28;20019;-73
2023/04/14 05:34:48;;;;;;;6.43;2.80;;;384.20;2176.00;;;;;;5096867;28;20021;-76
2023/04/14 05:37:13;;;;;;;5.95;2.83;;;384.20;2150.40;;;;;;5084819;28;20043;-75
2023/04/14 05:39:39;;;;;;;7.40;3.80;;;384.20;2099.20;;;;;;5090848;28;20451;-73
2023/04/14 05:42:05;;;;;;;9.18;3.33;;;384.20;2099.20;;;;;;5087362;28;20457;-71
2023/04/14 05:44:31;;;;;;;9.68;3.28;;;384.20;2124.80;;;;;;5094548;28;20028;-71
2023/04/14 05:46:56;;;;;;;6.75;2.40;;;384.30;2124.80;;;;;;5081260;28;20036;-71
2023/04/14 05:49:22;;;;;;;8.00;2.67;;;384.30;2124.80;;;;;;5084407;28;20470;-70
2023/04/14 05:51:48;;;;;;;8.25;2.92;;;384.20;2201.60;;;;;;5098900;28;20106;-71
2023/04/14 05:54:14;;;;;;;14.23;3.20;;;384.20;2227.20;;;;;;5084631;28;20029;-71
2023/04/14 05:56:40;;;;;;;11.02;3.60;;;384.10;2329.60;;;;;;5086176;28;20046;-71
2023/04/14 05:59:05;;;;;;;10.68;3.30;;;384.00;2329.60;;;;;;5088753;28;20371;-71
2023/04/14 06:01:31;;;;;;;11.65;4.05;;;384.00;2329.60;;;;;;5100066;28;20102;-71
2023/04/14 06:03:57;;;;;;;9.68;3.20;;;384.10;2278.40;;;;;;5080535;28;20622;-71
2023/04/14 06:06:22;;;;;;;10.52;3.30;;;384.10;2124.80;;;;;;5089540;28;20365;-71
2023/04/14 06:08:48;;;;;;;5.90;3.63;;;384.20;2176.00;;;;;;5094057;28;20085;-76
2023/04/14 06:11:14;;;;;;;11.52;3.83;;;384.10;2329.60;;;;;;5091192;28;20044;-71
2023/04/14 06:13:40;;;;;;;7.65;3.58;;;384.10;2329.60;;;;;;5083097;28;20055;-72
2023/04/14 06:16:06;;;;;;;7.40;3.95;;;384.00;2329.60;;;;;;5091394;28;20028;-73
2023/04/14 06:18:31;;;;;;;8.05;4.50;;;384.00;2329.60;;;;;;5082404;28;20047;-73
2023/04/14 06:20:57;;;;;;;13.07;3.90;;;359.30;2329.60;;;;;;5097481;28;20039;-72
2023/04/14 06:23:25;;;;;;;9.18;3.88;;;359.30;2329.60;;;;;;5089105;28;20056;-72
2023/04/14 06:25:51;;;;;;;8.82;4.63;;;359.20;2329.60;;;;;;5085616;28;20477;-70
2023/04/14 06:28:17;;;;;;;10.45;4.82;;;359.20;2329.60;;;;;;5094207;28;20016;-71
2023/04/14 06:30:43;;;;;;;17.23;6.10;;;359.20;2329.60;;;;;;5080509;28;20107;-72
2023/04/14 06:33:09;;;;;;;13.20;7.05;;;359.10;2329.60;;;;;;5097636;28;20542;-70
2023/04/14 06:35:35;;;;;;;12.65;6.07;;;358.90;2329.60;;;;;;5090947;28;20065;-73
2023/04/14 06:38:01;;;;;;;11.48;5.22;;;358.80;2329.60;;;;;;5094718;28;20137;-72
2023/04/14 06:40:27;;;;;;;7.30;3.20;;;358.90;2329.60;;;;;;5085461;28;20115;-70
2023/04/14 06:42:52;;;;;;;8.82;3.95;;;358.80;2329.60;;;;;;5098577;28;20029;-70
2023/04/14 06:45:18;;;;;;;6.57;3.53;;;358.80;2329.60;;;;;;5099099;28;20515;-71
2023/04/14 06:47:44;;;;;;;9.75;4.30;;;358.80;2329.60;;;;;;5091130;28;20020;-71
2023/04/14 06:50:11;;;;;;;7.88;4.32;;;358.70;2329.60;;;;;;5090180;28;20493;-71
2023/04/14 06:52:36;;;;;;;8.80;5.13;;;358.80;2329.60;;;;;;5087142;28;20035;-70
2023/04/14 06:55:02;;;;;;;9.90;4.22;;;358.70;2329.60;;;;;;5098838;28;20115;-72
2023/04/14 06:57:28;;;;;;;11.35;4.85;;;358.60;2329.60;;;;;;5094552;28;20020;-71
2023/04/14 06:59:53;;;;;;;9.70;5.82;;;358.60;2329.60;;;;;;5094482;28;20032;-71
2023/04/14 07:02:19;;;;;;;16.10;8.50;;;358.60;2329.60;;;;;;5088740;28;20032;-71
2023/04/14 07:04:45;;;;;;;15.98;9.90;;;358.60;2329.60;;;;;;5094855;28;20024;-70
2023/04/14 07:07:13;;;;;;;11.15;6.45;;;358.60;2329.60;;;;;;5095917;28;20048;-72
2023/04/14 07:09:41;;;;;;;16.13;6.65;;;358.50;2329.60;;;;;;5092293;28;20040;-72
2023/04/14 07:12:12;;;;;;;11.40;6.18;;;358.50;2329.60;;;;;;5089908;28;20028;-72
2023/04/14 07:14:40;;;;;;;16.00;7.18;;;358.50;2329.60;;;;;;5084825;28;20059;-72
2023/04/14 07:17:05;;;;;;;17.35;9.20;;;358.60;2329.60;;;;;;5096935;28;20359;-69
2023/04/14 07:19:31;;;;;;;23.70;12.55;;;358.70;2329.60;;;;;;5089693;28;20173;-72
2023/04/14 07:21:57;;;;;;;20.30;12.77;;;358.70;2329.60;;;;;;5086696;28;20028;-71
2023/04/14 07:24:23;;;;;;;21.98;10.88;;;358.70;2329.60;;;;;;5090780;28;20036;-71
2023/04/14 07:26:48;;;;;;;12.70;7.90;;;358.70;2329.60;;;;;;5093858;28;20020;-71
2023/04/14 07:29:15;;;;;;;19.98;10.32;;;358.80;2329.60;;;;;;5097274;28;20107;-72
2023/04/14 07:31:41;;;;;;;25.48;13.13;;;358.80;2329.60;;;;;;5091452;28;20029;-71
2023/04/14 07:34:07;;;;;;;28.35;20.90;;;358.80;2329.60;;;;;;5085127;28;20110;-70
2023/04/14 07:36:33;;;;;;;26.05;17.48;;;358.80;2329.60;;;;;;5088849;28;20103;-71
2023/04/14 07:38:59;;;;;;;13.98;7.50;;;358.80;2329.60;;;;;;5088331;28;20048;-72
2023/04/14 07:41:25;;;;;;;12.88;7.60;;;358.70;2329.60;;;;;;5094989;28;20036;-71
2023/04/14 07:43:54;;;;;;;13.27;7.43;;;358.70;2329.60;;;;;;5097411;28;20035;-71
2023/04/14 07:46:20;;;;;;;12.57;7.30;;;358.70;2329.60;;;;;;5082742;28;20020;-72
2023/04/14 07:48:46;;;;;;;13.77;7.80;;;358.80;2329.60;;;;;;5095854;28;20056;-71
2023/04/14 07:51:12;;;;;;;12.88;7.10;;;358.70;2329.60;;;;;;5089238;28;20046;-72
2023/04/14 07:53:41;;;;;;;10.68;6.65;;;358.80;2329.60;;;;;;5089904;28;20032;-71
2023/04/14 07:56:08;;;;;;;8.80;6.05;;;358.80;2329.60;;;;;;5092435;28;20512;-72
2023/04/14 07:58:33;;;;;;;10.95;6.60;;;358.70;2329.60;;;;;;5099024;28;20067;-77
2023/04/14 08:00:59;;;;;;;10.98;5.90;;;358.80;2329.60;;;;;;5082469;28;20024;-71
2023/04/14 08:03:25;;;;;;;8.93;5.57;;;358.70;2329.60;;;;;;5084236;28;20024;-70
2023/04/14 08:05:51;;;;;;;10.82;6.88;;;358.70;2329.60;;;;;;5096271;28;20400;-72
2023/04/14 08:08:17;;;;;;;9.73;6.00;;;358.70;2329.60;;;;;;5093619;28;20051;-71
2023/04/14 08:10:42;;;;;;;9.60;5.53;;;358.60;2329.60;;;;;;5088849;28;20044;-70
2023/04/14 08:13:09;;;;;;;7.63;5.05;;;358.70;2329.60;;;;;;5081236;28;20032;-70
2023/04/14 08:15:34;;;;;;;6.18;4.15;;;358.60;2329.60;;;;;;5096909;28;20110;-70
2023/04/14 08:18:00;;;;;;;10.55;6.45;;;358.60;2329.60;;;;;;5086313;28;20158;-70
2023/04/14 08:20:26;;;;;;;11.65;7.18;;;358.50;2329.60;;;;;;5087644;28;20504;-70
2023/04/14 08:22:51;;;;;;;9.75;7.13;;;358.50;2329.60;;;;;;5090906;28;20035;-70
2023/04/14 08:25:17;;;;;;;5.55;3.88;;;358.50;2329.60;;;;;;5085968;28;20064;-69
2023/04/14 08:27:43;;;;;;;5.68;3.20;;;358.40;2329.60;;;;;;5089188;28;20384;-71
2023/04/14 08:32:36;;;;;;;4.00;2.40;;;333.70;2329.60;;;;;;5059892;28;20413;-70
2023/04/14 08:35:02;;;;;;;4.90;2.45;;;333.70;2329.60;;;;;;5038140;28;20037;-70
2023/04/14 08:37:28;;;;;;;6.13;3.35;;;333.70;2329.60;;;;;;5033485;28;20100;-69
2023/04/14 08:39:53;;;;;;;4.60;3.08;;;333.60;2329.60;;;;;;5051718;28;20119;-71
2023/04/14 08:42:20;;;;;;;5.10;2.78;;;333.70;2329.60;;;;;;5048071;28;20472;-71
2023/04/14 08:44:46;;;;;;;7.22;4.05;;;333.70;2329.60;;;;;;5047532;28;20057;-69
2023/04/14 08:47:14;;;;;;;6.80;3.35;;;333.70;2329.60;;;;;;5048530;28;20056;-69
2023/04/14 08:49:45;;;;;;;8.65;3.17;;;333.70;2329.60;;;;;;5051632;28;20033;-72
2023/04/14 08:52:12;;;;;;;6.63;3.25;;;333.60;2329.60;;;;;;5048531;28;20096;-72
2023/04/14 08:54:42;;;;;;;6.10;3.45;;;333.50;2329.60;;;;;;5051751;28;20029;-71
2023/04/14 08:57:10;;;;;;;6.20;2.83;;;333.40;2329.60;;;;;;5049860;28;20022;-70
2023/04/14 08:59:37;;;;;;;5.93;2.70;;;333.40;2329.60;;;;;;5053627;28;20036;-70
2023/04/14 09:02:06;;;;;;;5.40;2.78;;;333.30;2329.60;;;;;;5043353;28;20033;-71
2023/04/14 09:04:34;;;;;;;8.10;3.30;;;333.20;2329.60;;;;;;5041061;28;20026;-71
2023/04/14 09:07:01;;;;;;;6.15;3.53;;;333.20;2329.60;;;;;;5053247;28;20009;-71
2023/04/14 09:09:28;;;;;;;6.25;2.95;;;333.20;2329.60;;;;;;5053048;28;20029;-71
2023/04/14 09:11:53;;;;;;;5.40;2.60;;;333.10;2329.60;;;;;;5051015;28;20496;-71
2023/04/14 09:14:20;;;;;;;7.43;3.05;;;333.10;2329.60;;;;;;5044795;28;20096;-70
2023/04/14 09:16:47;;;;;;;7.20;3.75;;;333.00;2329.60;;;;;;5044967;28;20132;-73
2023/04/14 09:19:14;;;;;;;8.30;4.40;;;333.00;2329.60;;;;;;5050670;28;20022;-70
2023/04/14 09:21:41;;;;;;;7.15;3.67;;;333.00;2329.60;;;;;;5048543;28;20067;-72
2023/04/14 09:24:07;;;;;;;7.68;4.10;;;333.00;2329.60;;;;;;5043248;28;20408;-71
2023/04/14 09:26:32;;;;;;;7.38;4.03;;;333.10;2329.60;;;;;;5033795;28;20036;-71
2023/04/14 09:28:58;;;;;;;8.43;4.65;;;333.00;2329.60;;;;;;5043729;28;20100;-70
2023/04/14 09:31:24;;;;;;;9.30;3.33;;;333.00;2329.60;;;;;;5036686;28;20058;-69
2023/04/14 09:33:50;;;;;;;10.40;4.65;;;333.00;2329.60;;;;;;5052076;28;20052;-69
2023/04/14 09:36:18;;;;;;;4.70;2.15;;;333.00;2329.60;;;;;;5037288;28;20064;-70
2023/04/14 09:38:44;;;;;;;11.15;4.00;;;333.00;2329.60;;;;;;5042388;28;20017;-70
2023/04/14 09:41:17;;;;;;;14.45;8.48;;;332.90;2329.60;;;;;;5049161;28;20457;-68
2023/04/14 09:43:44;;;;;;;14.52;6.90;;;332.90;2329.60;;;;;;5026994;28;20030;-70
2023/04/14 09:46:10;;;;;;;10.02;4.35;;;332.90;2329.60;;;;;;5027019;28;20018;-68
2023/04/14 09:48:52;;;;;;;7.97;4.35;;;333.00;2329.60;;;;;;5034764;28;20113;-69
2023/04/14 09:51:31;;;;;;;9.30;5.10;;;333.00;2329.60;;;;;;5028353;28;20128;-69
2023/04/14 09:54:04;;;;;;;9.05;3.95;;;333.00;2329.60;;;;;;5039301;28;20029;-72
2023/04/14 09:56:30;;;;;;;6.35;3.72;;;333.00;2329.60;;;;;;5033975;28;20056;-69
2023/04/14 09:58:58;;;;;;;8.65;4.88;;;333.00;2329.60;;;;;;5028354;28;20481;-70
2023/04/14 10:01:32;;;;;;;7.03;4.00;;;333.00;2329.60;;;;;;5032526;28;20029;-70
2023/04/14 10:04:00;;;;;;;5.93;3.50;;;333.00;2329.60;;;;;;5025151;28;20058;-70
2023/04/14 10:06:25;;;;;;;8.88;3.22;;;333.00;2329.60;;;;;;5038998;28;20033;-69
2023/04/14 10:08:55;;;;;;;8.23;5.03;;;333.00;2329.60;;;;;;5037423;28;20025;-71
2023/04/14 10:11:24;;;;;;;5.95;3.20;;;333.10;2329.60;;;;;;5028664;28;20081;-70
2023/04/14 10:13:54;;;;;;;9.20;4.30;;;333.20;2329.60;;;;;;5029530;28;20022;-70
2023/04/14 10:16:21;;;;;;;8.07;3.75;;;333.10;2329.60;;;;;;5035316;28;20551;-71
2023/04/14 10:18:47;;;;;;;5.05;2.65;;;333.00;2329.60;;;;;;5033412;28;20040;-70
2023/04/14 10:21:13;;;;;;;9.10;4.97;;;333.10;2329.60;;;;;;5041747;28;20471;-69
2023/04/14 10:23:41;;;;;;;9.70;5.78;;;333.10;2329.60;;;;;;5040430;28;20025;-69
2023/04/14 10:26:08;;;;;;;9.52;5.10;;;333.20;2329.60;;;;;;5025345;28;20023;-70
2023/04/14 10:28:43;;;;;;;5.70;3.90;;;333.20;2329.60;;;;;;5030904;28;20173;-72
2023/04/14 10:31:21;;;;;;;6.35;4.22;;;333.20;2329.60;;;;;;5035450;28;20130;-71
2023/04/14 10:33:47;;;;;;;5.78;3.53;;;333.20;2329.60;;;;;;5038467;28;20029;-74
2023/04/14 10:36:23;;;;;;;6.93;3.42;;;333.20;2329.60;;;;;;5035414;28;20018;-71
2023/04/14 10:38:49;;;;;;;6.53;4.38;;;333.10;2329.60;;;;;;5026511;28;20022;-71
2023/04/14 10:41:14;;;;;;;6.93;3.50;;;333.00;2329.60;;;;;;5025177;28;20021;-71
2023/04/14 10:43:40;;;;;;;9.82;3.67;;;332.90;2329.60;;;;;;5035507;28;20072;-71
2023/04/14 10:46:08;;;;;;;7.13;3.95;;;333.00;2329.60;;;;;;5026029;28;20056;-74
2023/04/14 10:48:38;;;;;;;9.18;4.88;;;332.90;2329.60;;;;;;5029004;28;20080;-71
2023/04/14 10:51:08;;;;;;;6.20;3.63;;;332.80;2329.60;;;;;;5048312;28;20489;-75
2023/04/14 10:53:49;;;;;;;5.97;3.72;;;308.10;2304.00;;;;;;5033068;28;20028;-72
2023/04/14 10:56:15;;;;;;;6.47;3.22;;;307.90;2304.00;;;;;;5038619;28;20044;-70
2023/04/14 10:58:52;;;;;;;5.55;2.45;;;307.80;2304.00;;;;;;5038008;28;20013;-71
2023/04/14 11:01:29;;;;;;;5.28;2.10;;;307.70;2304.00;;;;;;5032691;28;20026;-71
2023/04/14 11:03:56;;;;;;;6.20;2.70;;;307.80;2304.00;;;;;;5036858;28;20109;-71
2023/04/14 11:06:47;;;;;;;9.50;4.47;;;307.80;2304.00;;;;;;5032334;28;20025;-71
2023/04/14 11:09:32;;;;;;;8.55;3.95;;;307.80;2304.00;;;;;;5034592;28;20380;-72
2023/04/14 11:12:22;;;;;;;8.90;4.35;;;307.80;2304.00;;;;;;5023054;28;20036;-73
2023/04/14 11:14:47;;;;;;;17.67;7.90;;;307.80;2304.00;;;;;;5018397;28;20014;-72
2023/04/14 11:17:20;;;;;;;12.52;6.53;;;307.90;2304.00;;;;;;5024623;28;20032;-73
2023/04/14 11:19:46;;;;;;;5.47;3.40;;;308.00;2304.00;;;;;;5023393;28;20033;-73
2023/04/14 11:22:12;;;;;;;5.75;3.00;;;308.00;2304.00;;;;;;5031747;28;20033;-73
2023/04/14 11:24:39;;;;;;;7.70;3.85;;;308.00;2304.00;;;;;;5034146;28;20366;-72
2023/04/14 11:27:09;;;;;;;6.07;3.40;;;308.00;2304.00;;;;;;5038026;28;20028;-74
2023/04/14 11:29:35;;;;;;;8.35;4.32;;;308.10;2304.00;;;;;;5035075;28;20522;-72
2023/04/14 11:32:05;;;;;;;14.82;7.88;;;308.10;2304.00;;;;;;5032814;28;20137;-71
2023/04/14 11:34:32;;;;;;;11.73;5.78;;;332.80;2329.60;;;;;;5019654;28;20036;-71
2023/04/14 11:37:00;;;;;;;8.13;4.38;;;332.80;2329.60;;;;;;5028782;28;20013;-72
2023/04/14 11:39:28;;;;;;;6.50;3.10;;;332.80;2329.60;;;;;;5023992;28;20118;-71
2023/04/14 11:41:58;;;;;;;5.80;3.50;;;332.80;2329.60;;;;;;5029438;28;20105;-70
2023/04/14 11:44:24;;;;;;;7.47;4.03;;;333.00;2329.60;;;;;;5030164;28;20029;-72
2023/04/14 11:46:50;;;;;;;5.50;2.97;;;333.40;2329.60;;;;;;5035026;28;20021;-75
2023/04/14 11:49:16;;;;;;;6.00;3.05;;;358.50;2329.60;;;;;;5029423;28;20485;-72
2023/04/14 11:51:42;;;;;;;5.32;2.30;;;359.10;2329.60;;;;;;5039029;28;20112;-72
2023/04/14 11:54:10;;;;;;;5.93;2.05;;;359.10;2329.60;;;;;;5025323;28;20030;-72
2023/04/14 11:56:36;;;;;;;3.58;2.03;;;384.10;2329.60;;;;;;5024803;28;20440;-70
2023/04/14 11:59:03;;;;;;;4.10;2.00;;;384.40;2329.60;;;;;;5025855;28;20022;-71
2023/04/14 12:01:30;;;;;;;5.78;2.92;;;384.80;2329.60;;;;;;5032773;28;20030;-71
2023/04/14 12:03:57;;;;;;;3.63;2.20;;;409.60;2355.20;;;;;;5026651;28;20029;-70
2023/04/14 12:06:25;;;;;;;5.13;1.40;;;384.90;2329.60;;;;;;5030995;28;20535;-71
2023/04/14 12:08:52;;;;;;;2.80;1.75;;;409.60;2355.20;;;;;;5035669;28;20067;-69
2023/04/14 12:11:18;;;;;;;3.60;1.77;;;409.60;2355.20;;;;;;5033857;28;20036;-70
2023/04/14 12:13:45;;;;;;;3.08;1.90;;;384.90;2329.60;;;;;;5020278;28;20018;-71
2023/04/14 12:16:12;;;;;;;4.47;1.85;;;409.70;2355.20;;;;;;5026368;28;20223;-74
2023/04/14 12:18:38;;;;;;;10.00;4.40;;;409.90;2355.20;;;;;;5034656;28;20029;-70
2023/04/14 12:21:05;;;;;;;4.82;2.42;;;409.80;2355.20;;;;;;5021144;28;20057;-71
2023/04/14 12:23:35;;;;;;;3.00;1.60;;;409.70;2355.20;;;;;;5026797;28;20061;-71
2023/04/14 12:26:02;;;;;;;4.85;2.15;;;409.70;2355.20;;;;;;5033705;28;20076;-73
2023/04/14 12:28:28;;;;;;;4.63;1.80;;;410.00;2355.20;;;;;;5034495;28;20028;-70
2023/04/14 12:31:01;;;;;;;2.20;1.30;;;435.30;2355.20;;;;;;5045256;28;20136;-70
2023/04/14 12:33:27;;;;;;;3.42;1.50;;;435.90;2355.20;;;;;;5038319;28;20032;-72
2023/04/14 12:36:14;;;;;;;6.63;2.10;;;436.10;2355.20;;;;;;5035595;28;20043;-70
2023/04/14 12:38:40;;;;;;;1.98;1.30;;;435.70;2355.20;;;;;;5030590;28;20504;-69
2023/04/14 12:41:06;;;;;;;3.97;2.20;;;410.50;2355.20;;;;;;5030189;28;20059;-69
2023/04/14 12:43:37;;;;;;;3.17;1.83;;;410.00;2355.20;;;;;;5029350;28;20068;-70
2023/04/14 12:46:04;;;;;;;3.25;1.63;;;409.70;2355.20;;;;;;5031474;28;20450;-69
2023/04/14 12:48:49;;;;;;;2.95;1.50;;;409.60;2355.20;;;;;;5030013;28;20086;-69
2023/04/14 12:51:17;;;;;;;3.08;1.92;;;384.90;2329.60;;;;;;5025173;28;20398;-68
2023/04/14 12:53:45;;;;;;;2.10;1.17;;;384.70;2329.60;;;;;;5024053;28;20052;-69
2023/04/14 12:56:21;;;;;;;4.03;1.17;;;384.50;2329.60;;;;;;5034128;28;20359;-70
2023/04/14 12:58:47;;;;;;;4.10;1.67;;;384.20;2329.60;;;;;;5043601;28;20021;-72
2023/04/14 13:01:18;;;;;;;8.95;1.95;;;384.30;2329.60;;;;;;5032379;28;20108;-69
2023/04/14 13:03:48;;;;;;;9.30;3.22;;;384.00;2329.60;;;;;;5031069;28;20026;-69
2023/04/14 13:06:15;;;;;;;7.68;2.50;;;359.20;2329.60;;;;;;5034980;28;20044;-71